Create Custom Reports and Graphics: Custom Report

Soquel - CalFire

Current Conditions

11/17/19 11:15 PM (-08:00)
Updated Every 15 Minutes
Temp 61.6 °F   1.4
RH 35 %   2
Dew Pt 33.5 °F   0.1
Wind Spd 1.2 mph
Wind Dir E | 91 °
Wind Gust 1.9 mph   2.1
Latest Rain 0.00 In
Daily Rain 0.00 In
Leaf Wet 0.0 mins
Daily Min Temp 56.8 °F   5.8
Daily Max Temp 82.0 °F   8.1

Daily Summary

Last 30 Days

Daily Data | America/Los_Angeles
as of 11/17/19 11:24 PM PST
Date Daily Max Temp (°F) Daily Min Temp (°F) Daily Rain (In) Seasonal Rainfall (In) Daily Solar Rad (Cal/cm2) Daily ETo (in) Wind Spd (mph) Daily Max Wind (mph) Max Wind Dir (°) Dew Pt (°F) Max RH (%) Min RH (%) Leaf Wet (hrs) Soil Temp (°F) Soil Moist1 (%) Fuel Moisture (%) Max Fuel Moisture (%) Min Fuel Moisture (%) Bat Volt Min Day (V)
11/16/19 73.9 51.0 0.00 0.21 264 0.06 1.3 8.1 NNE | 16 45.1 90 33 3.8 61.3 11.1 12 22 0 12.06
11/15/19 69.2 47.8 0.00 0.21 209 0.05 1.3 10.1 N | 5 48.0 92 46 12.6 61.4 11.2 14 20 0 11.94
11/14/19 57.2 48.5 0.00 0.21 70 0.02 0.7 7.1 W | 274 48.3 92 71 9.2 61.4 11.2 14 18 10 11.97
11/13/19 67.8 48.3 0.00 0.21 215 0.05 0.9 5.9 W | 261 43.9 92 38 1.5 61.4 11.1 7 12 0 12.03
11/12/19 78.4 58.0 0.00 0.21 255 0.06 1.1 5.7 W | 262 39.2 60 18 0.0 61.5 11.1 5 8 0 12.06
11/11/19 80.9 58.8 0.00 0.21 276 0.07 1.2 5.5 WNW | 285 38.6 50 24 0.0 61.6 11.1 5 8 0 12.03
11/10/19 75.9 54.6 0.00 0.21 285 0.07 1.2 5.7 ESE | 102 35.1 59 25 0.0 61.8 11.0 5 8 0 12.00
11/9/19 80.2 57.0 0.00 0.21 294 0.07 1.1 5.8 WSW | 244 33.3 52 17 0.0 61.9 11.0 6 9 0 11.98
11/8/19 77.9 51.1 0.00 0.21 294 0.08 0.9 4.7 WSW | 238 38.1 70 25 0.0 62.1 11.0 8 14 0 12.00
11/7/19 69.1 44.5 0.00 0.21 292 0.07 0.7 5.0 WNW | 286 42.3 94 44 7.0 62.2 11.1 8 14 0 12.04
11/6/19 75.5 53.7 0.00 0.21 282 0.07 0.9 5.8 W | 268 42.2 74 27 0.0 62.3 11.1 6 10 0 12.01
11/5/19 79.0 57.0 0.00 0.21 299 0.08 1.2 7.0 WSW | 242 37.8 55 22 0.0 62.4 11.1 5 8 0 12.02
11/4/19 80.9 57.8 0.00 0.21 301 0.08 1.3 6.8 W | 267 31.0 44 14 0.0 62.6 11.1 4 6 0 12.04
11/3/19 80.5 58.4 0.00 0.21 308 0.08 1.4 6.1 WSW | 252 20.6 31 10 0.0 62.9 11.1 3 5 0 12.03
11/2/19 84.6 55.2 0.00 0.21 317 0.08 1.5 7.3 NNW | 337 17.6 27 7 0.0 63.2 11.0 4 6 0 11.98
11/1/19 77.4 49.0 0.00 0.21 320 0.08 1.4 6.5 W | 262 23.2 36 13 0.0 63.6 11.0 4 7 0 11.98
10/31/19 75.2 48.3 0.00 0.21 317 0.08 1.4 8.0 W | 268 18.7 36 11 0.0 63.9 11.1 4 7 0 11.99
10/30/19 74.2 49.4 0.00 0.21 317 0.08 1.5 9.3 NNE | 18 17.5 37 13 0.0 64.3 11.1 4 6 0 11.97
10/29/19 71.5 46.3 0.00 0.21 315 0.07 1.7 9.5 NE | 41 16.7 36 11 0.0 64.5 11.2 4 7 0 11.99
10/28/19 71.2 48.1 0.00 0.21 332 0.08 1.8 11.4 NE | 41 14.0 34 10 0.0 64.6 11.3 4 6 0 11.99
10/27/19 64.9 49.4 0.00 0.21 330 0.07 4.0 19.6 NNE | 20 17.1 69 12 0.0 64.6 11.4 4 9 0 12.02
10/26/19 85.9 50.5 0.00 0.21 323 0.08 1.2 7.4 W | 261 34.4 87 14 0.7 64.6 11.6 3 8 0 12.05
10/25/19 93.5 66.4 0.00 0.21 338 0.09 1.9 8.9 NNE | 21 29.0 31 9 0.0 64.5 11.7 2 5 0 12.08
10/24/19 93.1 66.0 0.00 0.21 341 0.09 1.5 12.0 NNE | 30 33.2 30 10 0.0 64.4 11.7 3 5 0 12.07
10/23/19 84.7 68.6 0.00 0.21 337 0.09 2.5 16.6 NNE | 19 36.8 37 13 0.0 64.4 11.7 3 5 0 12.07
10/22/19 87.4 62.2 0.00 0.21 349 0.10 1.9 12.8 SE | 138 36.4 42 14 0.0 64.5 11.7 4 7 0 12.06
10/21/19 82.0 59.5 0.00 0.21 346 0.09 2.3 14.0 ENE | 62 39.7 57 21 0.0 64.7 11.7 5 9 0 12.03
10/20/19 76.4 51.8 0.00 0.21 342 0.09 2.1 11.1 NNW | 339 42.9 88 23 1.6 64.9 11.6 9 17 0 12.03
10/19/19 71.8 45.8 0.00 0.21 333 0.09 1.4 7.8 W | 260 44.8 85 44 0.7 65.0 11.7 9 14 0 12.02
10/18/19 71.8 46.4 0.00 0.21 346 0.09 1.8 12.0 WSW | 240 43.4 81 37 0.0 65.2 11.9 8 13 0 12.04
Max 93.5 68.6 0.00 - 349 0.10 4.0 19.6 - 48.3 94 71 12.6 65.2 11.9 14 22 10 12.08
Avg - - - - - - 1.5 - - 33.6 - - - 63.3 11.3 6 10 0 -
Min 57.2 44.5 0.00 - 70 0.02 0.7 4.7 - 14.0 27 7 0.0 61.3 11.0 2 5 0 11.94